Terminal Aerodrome Forecast
Issued by NWS Tulsa, OK

Home | Current Version | Previous Version | Text Only | Print | Product List | Glossary On
Versions: 1 2 3 4 5 6 7 8 9 10 11 12 13 14 15 16 17 18 19 20 21 22 23
000
FTUS44 KTSA 202300
TAFFSM
TAF
KFSM 202320Z 2100/2124 30012G22KT P6SM FEW070
     FM210100 VRB05KT P6SM SKC
     FM211400 22007KT P6SM BKN100 PROB30 2114/2120 -SHRA=

USA.gov is the U.S. government's official web portal to all federal, state and local government web resources and services.